Other Surface Observations
Issued by NWS Missoula, MT

Home | Current Version | Previous Version | Text Only | Print | Product List | Glossary On
Versions: 1 2 3 4 5 6 7 8 9 10 11 12 13 14 15 16 17 18 19 20 21 22 23 24 25 26 27 28 29 30 31 32 33 34 35 36 37 38 39 40 41 42 43 44 45 46 47 48 49 50
000
SXUS55 KMSO 061243
OSOMSO
MONTANA AWOS SUMMARY
NATIONAL WEATHER SERVICE MISSOULA MT
643 AM MDT WED MAY 6 2015

Montana AWOS Reports

ROUNDUP     |KRPX 061235Z AUTO 33009G15KT 40SM 09/04 A2975 RMK AO1 T00940044
LAUREL      |K6S8 061235Z AUTO 33006KT 3 1/2SM 11/08 A2981 RMK AO1 T01060083
MALTA       |KM75 061235Z AUTO 25011G15KT 40SM 09/05 A2975 RMK AO1 T00940050
TWIN BRIDGES|K7S1 061235Z AUTO 32013G17KT 40SM 04/01 A2989 RMK AO1 T00440006




USA.gov is the U.S. government's official web portal to all federal, state and local government web resources and services.